New Harmony, Utah
Current Conditions -  °F | °C
As of 12:53 AM on Friday 21 Nov 2014 (Local Time) from KCDC Reporting Station
Clear Clear  
Wind Chill: 33°   Ceiling: Unl
Heat Index: 33°   Visibility: 10mi
Dew Point: 23°   Wind: 0mph
Humidity: 66%   Direction: NA
Pressure: 29.99"   Gusts: NA
Location:  37.48°N, 113.31°W
Report Text: KCDC 210753Z AUTO 00000KT 10SM CLR 01/M05 A2999 RMK AO2 SLP135 T00061050
Loading
Personal Weather Stations






























Interactive Weather Map New forecast layout! Learn more

10-Day Weather Forecast

Advertisements
Track Severe Weather on mobile